Time,TemperatureF,DewpointF,PressureIn,WindDirection,WindDirectionDegrees,WindSpeedMPH,WindSpeedGustMPH,Humidity,HourlyPrecipIn,Conditions,Clouds,dailyrainin,SoftwareType,DateUTC
2013-02-01 00:07:00,-999.0,-99.9,30.22,North,-999,-999.0,-999.0,-999,-99.99,,,0.00,weatherlink.com 1.10,2013-02-01 08:07:00,
2013-02-01 00:22:00,-999.0,-99.9,30.22,North,-999,-999.0,-999.0,-999,-99.99,,,0.00,weatherlink.com 1.10,2013-02-01 08:22:00,
2013-02-01 00:37:00,-999.0,-99.9,30.22,North,-999,-999.0,-999.0,-999,-99.99,,,0.00,weatherlink.com 1.10,2013-02-01 08:37:00,
2013-02-01 00:52:00,-999.0,-99.9,30.22,North,-999,-999.0,-999.0,-999,-99.99,,,0.00,weatherlink.com 1.10,2013-02-01 08:52:00,
2013-02-01 01:06:00,-999.0,-99.9,30.23,North,-999,-999.0,-999.0,-999,-99.99,,,0.00,weatherlink.com 1.10,2013-02-01 09:06:00,
2013-02-01 01:21:00,-999.0,-99.9,30.23,North,-999,-999.0,-999.0,-999,-99.99,,,0.00,weatherlink.com 1.10,2013-02-01 09:21:00,
2013-02-01 01:36:00,-999.0,-99.9,30.23,North,-999,-999.0,-999.0,-999,-99.99,,,0.00,weatherlink.com 1.10,2013-02-01 09:36:00,
2013-02-01 01:52:00,-999.0,-99.9,30.24,North,-999,-999.0,-999.0,-999,-99.99,,,0.00,weatherlink.com 1.10,2013-02-01 09:52:00,
2013-02-01 02:07:00,-999.0,-99.9,30.24,North,-999,-999.0,-999.0,-999,-99.99,,,0.00,weatherlink.com 1.10,2013-02-01 10:07:00,
2013-02-01 02:22:00,-999.0,-99.9,30.25,North,-999,-999.0,-999.0,-999,-99.99,,,0.00,weatherlink.com 1.10,2013-02-01 10:22:00,
2013-02-01 02:37:00,-999.0,-99.9,30.25,North,-999,-999.0,-999.0,-999,-99.99,,,0.00,weatherlink.com 1.10,2013-02-01 10:37:00,
2013-02-01 02:52:00,-999.0,-99.9,30.25,North,-999,-999.0,-999.0,-999,-99.99,,,0.00,weatherlink.com 1.10,2013-02-01 10:52:00,
2013-02-01 03:06:00,-999.0,-99.9,30.25,North,-999,-999.0,-999.0,-999,-99.99,,,0.00,weatherlink.com 1.10,2013-02-01 11:06:00,
2013-02-01 03:21:00,-999.0,-99.9,30.25,North,-999,-999.0,-999.0,-999,-99.99,,,0.00,weatherlink.com 1.10,2013-02-01 11:21:00,
2013-02-01 03:37:00,-999.0,-99.9,30.26,North,-999,-999.0,-999.0,-999,-99.99,,,0.00,weatherlink.com 1.10,2013-02-01 11:37:00,
2013-02-01 03:52:00,-999.0,-99.9,30.26,North,-999,-999.0,-999.0,-999,-99.99,,,0.00,weatherlink.com 1.10,2013-02-01 11:52:00,
2013-02-01 04:07:00,-999.0,-99.9,30.26,North,-999,-999.0,-999.0,-999,-99.99,,,0.00,weatherlink.com 1.10,2013-02-01 12:07:00,
2013-02-01 04:36:00,-999.0,-99.9,30.27,North,-999,-999.0,-999.0,-999,-99.99,,,0.00,weatherlink.com 1.10,2013-02-01 12:36:00,
2013-02-01 04:51:00,-999.0,-99.9,30.27,North,-999,-999.0,-999.0,-999,-99.99,,,0.00,weatherlink.com 1.10,2013-02-01 12:51:00,
2013-02-01 05:07:00,-999.0,-99.9,30.27,North,-999,-999.0,-999.0,-999,-99.99,,,0.00,weatherlink.com 1.10,2013-02-01 13:07:00,
2013-02-01 05:22:00,-999.0,-99.9,30.27,North,-999,-999.0,-999.0,-999,-99.99,,,0.00,weatherlink.com 1.10,2013-02-01 13:22:00,
2013-02-01 05:37:00,-999.0,-99.9,30.27,North,-999,-999.0,-999.0,-999,-99.99,,,0.00,weatherlink.com 1.10,2013-02-01 13:37:00,
2013-02-01 05:52:00,-999.0,-99.9,30.26,North,-999,-999.0,-999.0,-999,-99.99,,,0.00,weatherlink.com 1.10,2013-02-01 13:52:00,
2013-02-01 06:06:00,-999.0,-99.9,30.27,North,-999,-999.0,-999.0,-999,-99.99,,,0.00,weatherlink.com 1.10,2013-02-01 14:06:00,
2013-02-01 06:21:00,-999.0,-99.9,30.27,North,-999,-999.0,-999.0,-999,-99.99,,,0.00,weatherlink.com 1.10,2013-02-01 14:21:00,
2013-02-01 06:37:00,-999.0,-99.9,30.27,North,-999,-999.0,-999.0,-999,-99.99,,,0.00,weatherlink.com 1.10,2013-02-01 14:37:00,
2013-02-01 06:52:00,-999.0,-99.9,30.27,North,-999,-999.0,-999.0,-999,-99.99,,,0.00,weatherlink.com 1.10,2013-02-01 14:52:00,
2013-02-01 07:06:00,-999.0,-99.9,30.27,North,-999,-999.0,-999.0,-999,-99.99,,,0.00,weatherlink.com 1.10,2013-02-01 15:06:00,
2013-02-01 07:22:00,-999.0,-99.9,30.27,North,-999,-999.0,-999.0,-999,-99.99,,,0.00,weatherlink.com 1.10,2013-02-01 15:22:00,
2013-02-01 07:37:00,-999.0,-99.9,30.27,North,-999,-999.0,-999.0,-999,-99.99,,,0.00,weatherlink.com 1.10,2013-02-01 15:37:00,
2013-02-01 07:51:00,-999.0,-99.9,30.27,North,-999,-999.0,-999.0,-999,-99.99,,,0.00,weatherlink.com 1.10,2013-02-01 15:51:00,
2013-02-01 08:07:00,-999.0,-99.9,30.26,North,-999,-999.0,-999.0,-999,-99.99,,,0.00,weatherlink.com 1.10,2013-02-01 16:07:00,
2013-02-01 08:22:00,-999.0,-99.9,30.26,North,-999,-999.0,-999.0,-999,-99.99,,,0.00,weatherlink.com 1.10,2013-02-01 16:22:00,
2013-02-01 08:37:00,-999.0,-99.9,30.27,North,-999,-999.0,-999.0,-999,-99.99,,,0.00,weatherlink.com 1.10,2013-02-01 16:37:00,
2013-02-01 08:51:00,-999.0,-99.9,30.27,North,-999,-999.0,-999.0,-999,-99.99,,,0.00,weatherlink.com 1.10,2013-02-01 16:51:00,
2013-02-01 09:07:00,-999.0,-99.9,30.27,North,-999,-999.0,-999.0,-999,-99.99,,,0.00,weatherlink.com 1.10,2013-02-01 17:07:00,
2013-02-01 09:22:00,-999.0,-99.9,30.27,North,-999,-999.0,-999.0,-999,-99.99,,,0.00,weatherlink.com 1.10,2013-02-01 17:22:00,
2013-02-01 09:37:00,-999.0,-99.9,30.27,North,-999,-999.0,-999.0,-999,-99.99,,,0.00,weatherlink.com 1.10,2013-02-01 17:37:00,
2013-02-01 09:51:00,-999.0,-99.9,30.28,North,-999,-999.0,-999.0,-999,-99.99,,,0.00,weatherlink.com 1.10,2013-02-01 17:51:00,
2013-02-01 10:07:00,-999.0,-99.9,30.29,North,-999,-999.0,-999.0,-999,-99.99,,,0.00,weatherlink.com 1.10,2013-02-01 18:07:00,
2013-02-01 10:22:00,-999.0,-99.9,30.29,North,-999,-999.0,-999.0,-999,-99.99,,,0.00,weatherlink.com 1.10,2013-02-01 18:22:00,
2013-02-01 10:37:00,-999.0,-99.9,30.29,North,-999,-999.0,-999.0,-999,-99.99,,,0.00,weatherlink.com 1.10,2013-02-01 18:37:00,
2013-02-01 10:51:00,-999.0,-99.9,30.30,North,-999,-999.0,-999.0,-999,-99.99,,,0.00,weatherlink.com 1.10,2013-02-01 18:51:00,
2013-02-01 11:07:00,-999.0,-99.9,30.30,North,-999,-999.0,-999.0,-999,-99.99,,,0.00,weatherlink.com 1.10,2013-02-01 19:07:00,
2013-02-01 11:22:00,-999.0,-99.9,30.30,North,-999,-999.0,-999.0,-999,-99.99,,,0.00,weatherlink.com 1.10,2013-02-01 19:22:00,
2013-02-01 11:37:00,47.3,46.0,30.30,NNW,338,0.0,-999.0,95,-99.99,,,0.00,weatherlink.com 1.10,2013-02-01 19:37:00,
2013-02-01 11:52:00,47.4,46.0,30.30,NNW,336,1.0,-999.0,94,-99.99,,,0.00,weatherlink.com 1.10,2013-02-01 19:52:00,
2013-02-01 12:07:00,47.3,46.0,30.30,North,360,0.0,-999.0,94,-99.99,,,0.00,weatherlink.com 1.10,2013-02-01 20:07:00,
2013-02-01 12:22:00,48.2,47.0,30.29,North,350,1.0,-999.0,94,-99.99,,,0.00,weatherlink.com 1.10,2013-02-01 20:22:00,
2013-02-01 12:36:00,48.0,46.0,30.29,North,5,0.0,-999.0,92,-99.99,,,0.00,weatherlink.com 1.10,2013-02-01 20:36:00,
2013-02-01 12:51:00,49.0,47.0,30.29,North,360,2.0,-999.0,91,-99.99,,,0.00,weatherlink.com 1.10,2013-02-01 20:51:00,
2013-02-01 13:07:00,49.2,47.0,30.29,NNW,330,0.0,-999.0,92,-99.99,,,0.00,weatherlink.com 1.10,2013-02-01 21:07:00,
2013-02-01 13:22:00,49.6,46.0,30.28,North,350,0.0,-999.0,87,-99.99,,,0.00,weatherlink.com 1.10,2013-02-01 21:22:00,
2013-02-01 13:37:00,49.2,46.0,30.28,North,5,2.0,-999.0,89,-99.99,,,0.00,weatherlink.com 1.10,2013-02-01 21:37:00,
2013-02-01 13:52:00,48.8,46.0,30.28,NNW,340,0.0,-999.0,90,-99.99,,,0.00,weatherlink.com 1.10,2013-02-01 21:52:00,
2013-02-01 14:06:00,49.2,46.0,30.28,North,355,1.0,-999.0,89,-99.99,,,0.00,weatherlink.com 1.10,2013-02-01 22:06:00,
2013-02-01 14:21:00,49.4,46.0,30.27,NW,315,0.0,-999.0,88,-99.99,,,0.00,weatherlink.com 1.10,2013-02-01 22:21:00,
2013-02-01 14:36:00,50.3,46.0,30.27,NE,41,0.0,-999.0,85,-99.99,,,0.00,weatherlink.com 1.10,2013-02-01 22:36:00,
2013-02-01 14:51:00,50.5,46.0,30.27,North,355,0.0,-999.0,84,-99.99,,,0.00,weatherlink.com 1.10,2013-02-01 22:51:00,
2013-02-01 15:06:00,50.1,46.0,30.27,NNE,32,3.0,-999.0,85,-99.99,,,0.00,weatherlink.com 1.10,2013-02-01 23:06:00,
2013-02-01 15:21:00,50.0,46.0,30.27,North,355,0.0,-999.0,85,-99.99,,,0.00,weatherlink.com 1.10,2013-02-01 23:21:00,
2013-02-01 15:36:00,50.3,46.0,30.27,North,355,0.0,-999.0,84,-99.99,,,0.00,weatherlink.com 1.10,2013-02-01 23:36:00,
2013-02-01 15:51:00,50.5,46.0,30.26,East,84,0.0,-999.0,84,-99.99,,,0.00,weatherlink.com 1.10,2013-02-01 23:51:00,
2013-02-01 16:06:00,50.6,46.0,30.26,NNE,14,0.0,-999.0,84,-99.99,,,0.00,weatherlink.com 1.10,2013-02-02 00:06:00,
2013-02-01 16:21:00,50.2,46.0,30.26,ENE,68,0.0,-999.0,84,-99.99,,,0.00,weatherlink.com 1.10,2013-02-02 00:21:00,
2013-02-01 16:36:00,49.0,45.0,30.26,NNW,348,0.0,-999.0,85,-99.99,,,0.00,weatherlink.com 1.10,2013-02-02 00:36:00,
2013-02-01 16:51:00,48.1,44.0,30.26,NNE,14,1.0,-999.0,86,-99.99,,,0.00,weatherlink.com 1.10,2013-02-02 00:51:00,
2013-02-01 17:06:00,47.0,44.0,30.26,North,355,1.0,-999.0,88,-99.99,,,0.00,weatherlink.com 1.10,2013-02-02 01:06:00,
2013-02-01 17:21:00,46.7,44.0,30.26,North,360,2.0,-999.0,89,-99.99,,,0.00,weatherlink.com 1.10,2013-02-02 01:21:00,
2013-02-01 17:36:00,-999.0,-99.9,30.26,North,-999,-999.0,-999.0,-999,-99.99,,,0.00,weatherlink.com 1.10,2013-02-02 01:36:00,
2013-02-01 17:51:00,-999.0,-99.9,30.27,North,-999,-999.0,-999.0,-999,-99.99,,,0.00,weatherlink.com 1.10,2013-02-02 01:51:00,
2013-02-01 18:06:00,-999.0,-99.9,30.26,North,-999,-999.0,-999.0,-999,-99.99,,,0.00,weatherlink.com 1.10,2013-02-02 02:06:00,
2013-02-01 18:22:00,-999.0,-99.9,30.27,North,-999,-999.0,-999.0,-999,-99.99,,,0.00,weatherlink.com 1.10,2013-02-02 02:22:00,
2013-02-01 18:37:00,-999.0,-99.9,30.27,North,-999,-999.0,-999.0,-999,-99.99,,,0.00,weatherlink.com 1.10,2013-02-02 02:37:00,
2013-02-01 18:52:00,-999.0,-99.9,30.27,North,-999,-999.0,-999.0,-999,-99.99,,,0.00,weatherlink.com 1.10,2013-02-02 02:52:00,
2013-02-01 19:07:00,-999.0,-99.9,30.27,North,-999,-999.0,-999.0,-999,-99.99,,,0.00,weatherlink.com 1.10,2013-02-02 03:07:00,
2013-02-01 19:22:00,-999.0,-99.9,30.28,North,-999,-999.0,-999.0,-999,-99.99,,,0.00,weatherlink.com 1.10,2013-02-02 03:22:00,
2013-02-01 19:37:00,-999.0,-99.9,30.27,North,-999,-999.0,-999.0,-999,-99.99,,,0.00,weatherlink.com 1.10,2013-02-02 03:37:00,
2013-02-01 19:52:00,-999.0,-99.9,30.27,North,-999,-999.0,-999.0,-999,-99.99,,,0.00,weatherlink.com 1.10,2013-02-02 03:52:00,
2013-02-01 20:07:00,-999.0,-99.9,30.27,North,-999,-999.0,-999.0,-999,-99.99,,,0.00,weatherlink.com 1.10,2013-02-02 04:07:00,
2013-02-01 20:22:00,-999.0,-99.9,30.27,North,-999,-999.0,-999.0,-999,-99.99,,,0.00,weatherlink.com 1.10,2013-02-02 04:22:00,
2013-02-01 20:37:00,-999.0,-99.9,30.28,North,-999,-999.0,-999.0,-999,-99.99,,,0.00,weatherlink.com 1.10,2013-02-02 04:37:00,
2013-02-01 20:52:00,-999.0,-99.9,30.28,North,-999,-999.0,-999.0,-999,-99.99,,,0.00,weatherlink.com 1.10,2013-02-02 04:52:00,
2013-02-01 21:07:00,-999.0,-99.9,30.28,North,-999,-999.0,-999.0,-999,-99.99,,,0.00,weatherlink.com 1.10,2013-02-02 05:07:00,
2013-02-01 21:22:00,-999.0,-99.9,30.29,North,-999,-999.0,-999.0,-999,-99.99,,,0.00,weatherlink.com 1.10,2013-02-02 05:22:00,
2013-02-01 21:37:00,-999.0,-99.9,30.28,North,-999,-999.0,-999.0,-999,-99.99,,,0.00,weatherlink.com 1.10,2013-02-02 05:37:00,
2013-02-01 21:52:00,-999.0,-99.9,30.28,North,-999,-999.0,-999.0,-999,-99.99,,,0.00,weatherlink.com 1.10,2013-02-02 05:52:00,
2013-02-01 22:07:00,-999.0,-99.9,30.27,North,-999,-999.0,-999.0,-999,-99.99,,,0.00,weatherlink.com 1.10,2013-02-02 06:07:00,
2013-02-01 22:22:00,-999.0,-99.9,30.27,North,-999,-999.0,-999.0,-999,-99.99,,,0.00,weatherlink.com 1.10,2013-02-02 06:22:00,
2013-02-01 22:37:00,-999.0,-99.9,30.27,North,-999,-999.0,-999.0,-999,-99.99,,,0.00,weatherlink.com 1.10,2013-02-02 06:37:00,
2013-02-01 22:52:00,-999.0,-99.9,30.28,North,-999,-999.0,-999.0,-999,-99.99,,,0.00,weatherlink.com 1.10,2013-02-02 06:52:00,
2013-02-01 23:07:00,-999.0,-99.9,30.27,North,-999,-999.0,-999.0,-999,-99.99,,,0.00,weatherlink.com 1.10,2013-02-02 07:07:00,
2013-02-01 23:22:00,-999.0,-99.9,30.28,North,-999,-999.0,-999.0,-999,-99.99,,,0.00,weatherlink.com 1.10,2013-02-02 07:22:00,
2013-02-01 23:37:00,-999.0,-99.9,30.27,North,-999,-999.0,-999.0,-999,-99.99,,,0.00,weatherlink.com 1.10,2013-02-02 07:37:00,
2013-02-01 23:52:00,-999.0,-99.9,30.27,North,-999,-999.0,-999.0,-999,-99.99,,,0.00,weatherlink.com 1.10,2013-02-02 07:52:00,